createdAt,value
2018-08-22T00:01:36.084Z,99862.15
2018-08-22T00:07:41.143Z,99858.86
2018-08-22T00:13:45.856Z,99857.27
2018-08-22T00:19:50.596Z,99855.20
2018-08-22T00:25:55.340Z,99839.93
2018-08-22T00:31:59.978Z,99846.99
2018-08-22T00:38:04.862Z,99837.58
2018-08-22T00:44:10.134Z,99840.30
2018-08-22T00:50:14.900Z,99833.30
2018-08-22T00:56:19.965Z,99829.40
2018-08-22T01:02:24.659Z,99817.91
2018-08-22T01:08:29.843Z,99810.72
2018-08-22T01:14:34.537Z,99812.84
2018-08-22T01:20:40.041Z,99813.20
2018-08-22T01:26:45.030Z,99814.16
2018-08-22T01:32:49.686Z,99808.48
2018-08-22T01:38:54.407Z,99801.66
2018-08-22T01:44:59.135Z,99804.62
2018-08-22T01:51:03.860Z,99796.57
2018-08-22T01:57:09.120Z,99797.14
2018-08-22T02:03:13.852Z,99805.28
2018-08-22T02:09:18.494Z,99796.22
2018-08-22T02:15:23.140Z,99795.50
2018-08-22T02:21:28.059Z,99800.78
2018-08-22T02:27:32.762Z,99797.74
2018-08-22T02:33:37.465Z,99803.39
2018-08-22T02:39:42.321Z,99813.23
2018-08-22T02:45:47.147Z,99807.09
2018-08-22T02:51:51.751Z,99803.23
2018-08-22T02:57:56.454Z,99802.24
2018-08-22T03:04:01.464Z,99801.78
2018-08-22T03:10:06.459Z,99798.73
2018-08-22T03:16:11.607Z,99792.17
2018-08-22T03:22:17.061Z,99793.88
2018-08-22T03:28:21.762Z,99785.25
2018-08-22T03:34:26.545Z,99788.53
2018-08-22T03:40:31.440Z,99783.38
2018-08-22T03:46:36.231Z,99787.68
2018-08-22T03:52:41.233Z,99781.20
2018-08-22T03:58:45.980Z,99796.11
2018-08-22T04:04:50.935Z,99790.14
2018-08-22T04:10:55.642Z,99797.31
2018-08-22T04:17:00.326Z,99802.90
2018-08-22T04:23:05.210Z,99798.08
2018-08-22T04:29:10.372Z,99800.30
2018-08-22T04:35:15.390Z,99794.38
2018-08-22T04:41:20.075Z,99793.50
2018-08-22T04:47:24.924Z,99797.62
2018-08-22T04:53:29.757Z,99795.50
2018-08-22T04:59:34.624Z,99803.48
2018-08-22T05:05:39.499Z,99807.92
2018-08-22T05:11:44.231Z,99801.23
2018-08-22T05:17:48.862Z,99805.49
2018-08-22T05:23:53.549Z,99800.53
2018-08-22T05:29:58.265Z,99794.00
2018-08-22T05:36:02.900Z,99783.98
2018-08-22T05:42:08.178Z,99783.48
2018-08-22T05:48:13.705Z,99779.41
2018-08-22T05:54:19.020Z,99776.55
2018-08-22T06:00:23.858Z,99768.33
2018-08-22T06:06:28.653Z,99768.45
2018-08-22T06:12:33.673Z,99764.63
2018-08-22T06:18:39.150Z,99764.86
2018-08-22T06:24:43.923Z,99765.00
2018-08-22T06:30:48.760Z,99773.35
2018-08-22T06:36:53.434Z,99768.70
2018-08-22T06:42:58.378Z,99774.00
2018-08-22T06:49:03.112Z,99768.11
2018-08-22T06:55:08.507Z,99764.22
2018-08-22T07:01:14.169Z,99764.30
2018-08-22T07:07:19.605Z,99746.86
2018-08-22T07:13:24.497Z,99742.48
2018-08-22T07:19:29.410Z,99739.75
2018-08-22T07:25:34.331Z,99732.61
2018-08-22T07:31:39.779Z,99721.92
2018-08-22T07:37:44.565Z,99720.03
2018-08-22T07:43:49.412Z,99724.59
2018-08-22T07:49:54.164Z,99719.52
2018-08-22T07:55:58.948Z,99716.88
2018-08-22T08:02:03.749Z,99719.80
2018-08-22T08:08:08.657Z,99715.33
2018-08-22T08:14:13.836Z,99711.05
2018-08-22T08:20:18.980Z,99712.56
2018-08-22T08:26:23.722Z,99708.78
2018-08-22T08:32:28.505Z,99703.08
2018-08-22T08:38:33.296Z,99694.72
2018-08-22T08:44:38.516Z,99696.11
2018-08-22T08:50:43.787Z,99688.49
2018-08-22T08:56:48.612Z,99675.66
2018-08-22T09:02:53.285Z,99668.59
2018-08-22T09:08:57.964Z,99657.27
2018-08-22T09:15:02.822Z,99666.58
2018-08-22T09:21:07.955Z,99659.38
2018-08-22T09:27:13.075Z,99652.41
2018-08-22T09:33:18.757Z,99654.89
2018-08-22T09:39:23.796Z,99646.52
2018-08-22T09:45:28.735Z,99633.36
2018-08-22T09:51:33.730Z,99635.37
2018-08-22T09:57:38.735Z,99627.56
2018-08-22T10:04:00.120Z,99621.45
2018-08-22T10:10:05.183Z,99611.32
2018-08-22T10:16:11.810Z,99608.47
2018-08-22T10:22:16.621Z,99590.97
2018-08-22T10:28:21.364Z,99586.77
2018-08-22T10:34:26.048Z,99586.12
2018-08-22T10:40:31.934Z,99570.03
2018-08-22T10:46:37.109Z,99570.59
2018-08-22T10:52:42.960Z,99567.02
2018-08-22T10:58:47.807Z,99559.34
2018-08-22T11:04:52.518Z,99560.47
2018-08-22T11:10:57.567Z,99556.24
2018-08-22T11:17:02.314Z,99552.78
2018-08-22T11:23:24.361Z,99548.81
2018-08-22T11:29:46.582Z,99545.23
2018-08-22T11:35:49.436Z,99542.42
2018-08-22T11:41:54.209Z,99529.36
2018-08-22T11:47:59.126Z,99524.02
2018-08-22T11:54:04.075Z,99526.81
2018-08-22T12:00:10.059Z,99520.03
2018-08-22T12:06:14.787Z,99501.20
2018-08-22T12:12:20.074Z,99496.45
2018-08-22T12:18:24.768Z,99490.77
2018-08-22T12:24:30.096Z,99493.67
2018-08-22T12:30:34.858Z,99480.45
2018-08-22T12:36:39.737Z,99473.12
2018-08-22T12:42:44.428Z,99471.44
2018-08-22T12:48:49.513Z,99459.80
2018-08-22T12:54:54.533Z,99450.20
2018-08-22T13:00:59.383Z,99436.75
2018-08-22T13:07:04.255Z,99437.00
2018-08-22T13:13:09.575Z,99433.04
2018-08-22T13:19:14.350Z,99425.28
2018-08-22T13:25:19.243Z,99427.91
2018-08-22T13:31:24.353Z,99418.50
2018-08-22T13:37:29.084Z,99413.23
2018-08-22T13:43:33.921Z,99407.66
2018-08-22T13:49:39.318Z,99396.17
2018-08-22T13:55:44.656Z,99401.48
2018-08-22T14:01:49.766Z,99384.11
2018-08-22T14:07:54.674Z,99387.55
2018-08-22T14:13:59.833Z,99379.00
2018-08-22T14:20:04.670Z,99370.53
2018-08-22T14:26:09.658Z,99367.10
2018-08-22T14:32:14.660Z,99363.36
2018-08-22T14:38:19.670Z,99371.84
2018-08-22T14:44:24.700Z,99363.05
2018-08-22T14:50:29.763Z,99359.48
2018-08-22T14:56:34.808Z,99347.48
2018-08-22T15:02:39.749Z,99340.33
2018-08-22T15:08:44.621Z,99336.51
2018-08-22T15:14:49.612Z,99335.39
2018-08-22T15:20:54.582Z,99321.01
2018-08-22T15:26:59.583Z,99321.17
2018-08-22T15:33:04.715Z,99305.20
2018-08-22T15:39:11.200Z,99308.25
2018-08-22T15:45:16.199Z,99302.06
2018-08-22T15:51:21.233Z,99296.70
2018-08-22T15:57:26.312Z,99288.75
2018-08-22T16:03:31.266Z,99283.95
2018-08-22T16:09:36.001Z,99276.63
2018-08-22T16:15:40.714Z,99275.03
2018-08-22T16:21:45.553Z,99266.47
2018-08-22T16:27:51.363Z,99265.62
2018-08-22T16:33:56.047Z,99264.36
2018-08-22T16:40:01.005Z,99259.80
2018-08-22T16:46:08.883Z,99254.21
2018-08-22T16:52:13.520Z,99256.31
2018-08-22T16:58:18.579Z,99251.41
2018-08-22T17:04:23.534Z,99248.45
2018-08-22T17:10:48.227Z,99245.84
2018-08-22T17:16:52.867Z,99242.39
2018-08-22T17:22:57.497Z,99240.89
2018-08-22T17:29:02.346Z,99233.98
2018-08-22T17:35:07.151Z,99235.97
2018-08-22T17:41:11.826Z,99230.42
2018-08-22T17:47:16.432Z,99234.97
2018-08-22T17:53:21.054Z,99239.69
2018-08-22T17:59:25.786Z,99239.05
2018-08-22T18:05:32.975Z,99239.24
2018-08-22T18:11:37.953Z,99232.19
2018-08-22T18:17:42.957Z,99243.59
2018-08-22T18:23:55.007Z,99245.74
2018-08-22T18:29:59.671Z,99250.31
2018-08-22T18:36:04.341Z,99253.14
2018-08-22T18:42:09.011Z,99253.45
2018-08-22T18:48:13.643Z,99256.42
2018-08-22T18:54:18.520Z,99252.66
2018-08-22T19:00:23.478Z,99258.45
2018-08-22T19:06:28.389Z,99266.92
2018-08-22T19:12:33.307Z,99259.44
2018-08-22T19:18:38.172Z,99273.30
2018-08-22T19:24:57.588Z,99274.74
2018-08-22T19:31:02.053Z,99271.16
2018-08-22T19:37:06.670Z,99279.02
2018-08-22T19:43:11.270Z,99274.51
2018-08-22T19:49:15.869Z,99274.80
2018-08-22T19:55:20.424Z,99275.88
2018-08-22T20:01:25.048Z,99280.10
2018-08-22T20:07:29.680Z,99278.52
2018-08-22T20:14:01.234Z,99286.38
2018-08-22T20:20:06.695Z,99284.75
2018-08-22T20:26:11.301Z,99284.88
2018-08-22T20:32:21.003Z,99293.58
2018-08-22T20:38:25.570Z,99286.64
2018-08-22T20:44:30.239Z,99294.08
2018-08-22T20:50:35.483Z,99301.61
2018-08-22T20:56:48.674Z,99297.05
2018-08-22T21:02:54.663Z,99297.44
2018-08-22T21:08:59.209Z,99292.44
2018-08-22T21:15:03.861Z,99292.11
2018-08-22T21:21:12.525Z,99292.06
2018-08-22T21:27:17.076Z,99288.55
2018-08-22T21:33:21.682Z,99294.14
2018-08-22T21:39:27.398Z,99287.73
2018-08-22T21:45:32.016Z,99282.44
2018-08-22T21:51:38.648Z,99288.62
2018-08-22T21:57:43.225Z,99281.98
2018-08-22T22:03:47.911Z,99289.38
2018-08-22T22:09:57.262Z,99281.67
2018-08-22T22:16:04.109Z,99277.56
2018-08-22T22:22:08.719Z,99272.73
2018-08-22T22:28:13.361Z,99274.05
2018-08-22T22:34:17.952Z,99282.48
2018-08-22T22:40:26.512Z,99278.73
2018-08-22T22:46:31.141Z,99284.52
2018-08-22T22:52:45.512Z,99273.61
2018-08-22T22:58:50.107Z,99277.75
2018-08-22T23:04:55.750Z,99270.43
2018-08-22T23:11:00.320Z,99270.73
2018-08-22T23:17:04.953Z,99265.30
2018-08-22T23:23:35.694Z,99257.41
2018-08-22T23:29:40.311Z,99251.70
2018-08-22T23:35:44.875Z,99245.69
2018-08-22T23:41:49.460Z,99243.76
2018-08-22T23:47:54.115Z,99252.77
2018-08-22T23:54:00.535Z,99245.41
